McBeth, Texas
Current Conditions -  °F | °C
As of 7:53 AM on Thursday 30 Oct 2014 (Local Time) from KLBX Reporting Station
Overcast Overcast  
Wind Chill: 64°   Ceiling: 2200
Heat Index: 64°   Visibility: 10mi
Dew Point: 58°   Wind: 7mph
Humidity: 80%   Direction: 40°NE
Pressure: 30.1"   Gusts: NA
Location:  29.1898°N, 95.4754°W
Report Text: KLBX 301253Z AUTO 04006KT 10SM OVC022 18/14 A3010 RMK AO2 SLP192 T01780144
Loading
Personal Weather Stations






























Interactive Weather Map
Tropical Storm Tracking
New forecast layout! Learn more

10-Day Weather Forecast

Advertisements
Track Severe Weather on mobile